KDKB

De Kalb Taylor Municipal Airport

De Kalb, Illinois, USA
METAR KDKB 171755Z AUTO 29011G16KT 10SM SCT041 09/M01 A3034 RMK AO2 T00881007 10094 20030
Observed Flight Rules
Oct-17 @ 17:55 UTC (31 minutes ago) Visual Flight Rules
Wind Visibility Clouds
290° at 11 knots
 Gusting to 16 knots
10 miles
  • Scattered at 4,100' AGL
Temperatures Readings
Current 9°C / 48°F
Dewpoint -1°C / 30°F
Humidity 50%
Altimeter 30.34" Hg
Pressure 1027 hPa
Elevation 279
METAR KDKB 171755Z AUTO 29011G16KT 10SM SCT041 09/M01 A3034 RMK AO2 T00881007 10094 20030
Observed Flight Rules
Oct-17 @ 17:55 UTC
(31 minutes ago)
VFR
Wind Visibility
290° at 11 knots
 Gusting to 16 knots
10 miles
Clouds
  • Scattered at 4,100' AGL
Temperature Dewpoint
9°C / 48°F -1°C / 30°F
Humidity Altimeter Pressure
50% 30.34" Hg 1027 hPa